Aeroporto :
LOGIN :

Iscrizione | Disclaimer

   EN    FR    IT 

 










Sommario :    VFR   VFR Marginale   IFR   IFR Intensivo   IFR Molto Intensivo
Visibilità : 
Base nubi : 
>= 8 km
>= 3000ft
5 / 8 km
1000 / 3000 ft
1500m / 5 km
500 / 1000 ft
800 / 1500m
200 / 500 ft
< 800m
< 200 ft
Simboli :   Temporali  Nebbia  Neve Forte  Precipitazioni Forti  Vento > 20 kt
SIGMETs :   Varie  Temporali  Ghiacco  Turbolenza  Onda orograficha  Ceneri Vulcaniche






- Altitudine del aeroporto : 427 ft
- Codice IATA : CIA


LIRA - Roma Ciampino

ULTIMO METAR :
  • 061820Z 13005KT 8000 NSC 12/10 Q1021

METARs OBSOLETI :
  • 061750Z 12004KT 8000 NSC 12/09 Q1021
  • 061720Z 14004KT 7000 NSC 11/09 Q1021
  • 061650Z 12003KT CAVOK 12/09 Q1021
  • 061620Z 15003KT CAVOK 13/10 Q1021
  • 061550Z 20003KT CAVOK 14/10 Q1021

TAF TAF LIRA
Valido dal 06 a 18 ore il 07 a 18 ore UTC


061700Z 0618/0718 15008KT 9999 SCT040
TEMPO 0618/0703 4000 SHRA
TEMPO 0710/0715 SHRA



MetMap, La meteo Aeronautica in un colpo d'occhio ! - Copyright ORBIFLY Dicembre 2007 - Disclaimer

ORBIFLY MET'MAP TEAM :

Programmazione e sviluppo : Alexandra Zaïnal
Concezione : Baudouin d'Aumeries
Aiuto per la programmazione : Marc-Olivier Méhu
Supporto tecnico e logistico : Manuel Goepfert
Aiuto per la traduzione : Arnaldo La Scala

Contatto : metmap@orbifly.com




FONTI E CREDITI :

   NOAA